Time;durP1;ratioP1;P1;durP2;ratioP2;P2;SDS_P1;SDS_P2;PMS_P1;PMS_P2;Temp;Humidity;BMP_temperature;BMP_pressure;BME280_temperature;BME280_humidity;BME280_pressure;Samples;Min_cycle;Max_cycle;Signal;HPM_P1;HPM_P2
2022/08/31 00:06:05;;;;;;;0.20;0.20;;;16.40;1.00;;;;;;5095597;28;20101;-64
2022/08/31 00:08:32;;;;;;;0.65;0.40;;;16.30;1.00;;;;;;5095173;28;20028;-64
2022/08/31 00:10:58;;;;;;;0.65;0.40;;;16.30;1.00;;;;;;5094539;28;20475;-64
2022/08/31 00:13:26;;;;;;;0.40;0.40;;;16.20;1.00;;;;;;5095402;28;20391;-67
2022/08/31 00:15:53;;;;;;;0.35;0.30;;;16.30;1.00;;;;;;5095281;28;20047;-64
2022/08/31 00:18:20;;;;;;;0.40;0.30;;;16.20;1.00;;;;;;5095438;28;20044;-64
2022/08/31 00:20:47;;;;;;;0.30;0.30;;;16.20;1.00;;;;;;5095251;28;20053;-65
2022/08/31 00:23:14;;;;;;;0.30;0.30;;;16.20;1.00;;;;;;5095002;28;20036;-65
2022/08/31 00:25:43;;;;;;;0.30;0.30;;;16.10;1.00;;;;;;5095294;28;20051;-64
2022/08/31 00:28:10;;;;;;;0.30;0.30;;;16.10;1.00;;;;;;5095221;28;20044;-64
2022/08/31 00:30:36;;;;;;;0.68;0.43;;;16.10;1.00;;;;;;5094750;28;20051;-64
2022/08/31 00:33:03;;;;;;;0.50;0.30;;;16.20;99.90;;;;;;5094786;28;20123;-64
2022/08/31 00:35:31;;;;;;;0.30;0.30;;;16.10;99.90;;;;;;5093566;28;20050;-64
2022/08/31 00:37:57;;;;;;;0.22;0.22;;;16.20;85.80;;;;;;5095042;28;20538;-64
2022/08/31 00:40:23;;;;;;;0.75;0.32;;;15.80;80.10;;;;;;5093447;28;20138;-64
2022/08/31 00:42:49;;;;;;;0.45;0.30;;;16.00;85.10;;;;;;5093789;28;20064;-64
2022/08/31 00:45:15;;;;;;;0.57;0.45;;;16.00;62.60;;;;;;5093287;28;20078;-64
2022/08/31 00:47:41;;;;;;;0.20;0.20;;;15.90;56.40;;;;;;5094832;28;20040;-64
2022/08/31 00:50:10;;;;;;;0.82;0.50;;;15.90;84.70;;;;;;5093381;28;20036;-64
2022/08/31 00:52:40;;;;;;;0.77;0.38;;;15.90;99.90;;;;;;5094284;28;20039;-64
2022/08/31 00:55:21;;;;;;;0.50;0.35;;;15.90;99.90;;;;;;5094746;28;20414;-64
2022/08/31 00:57:50;;;;;;;0.50;0.40;;;15.80;99.90;;;;;;5094605;28;20068;-64
2022/08/31 01:00:23;;;;;;;0.40;0.30;;;15.70;99.90;;;;;;5092996;28;20127;-64
2022/08/31 01:02:48;;;;;;;0.90;0.40;;;15.80;23.70;;;;;;5093237;28;20044;-65
2022/08/31 01:05:16;;;;;;;0.22;0.22;;;15.70;1.00;;;;;;5094477;28;20035;-64
2022/08/31 01:07:46;;;;;;;0.25;0.25;;;15.60;1.00;;;;;;5094169;28;20036;-64
2022/08/31 01:10:12;;;;;;;0.20;0.20;;;15.60;1.00;;;;;;5094213;28;20585;-64
2022/08/31 01:12:40;;;;;;;0.30;0.30;;;15.50;1.00;;;;;;5094320;28;20046;-64
2022/08/31 01:15:08;;;;;;;0.30;0.30;;;15.50;1.00;;;;;;5093977;28;20068;-67
2022/08/31 01:17:36;;;;;;;0.32;0.28;;;15.50;1.00;;;;;;5094037;28;20056;-67
2022/08/31 01:20:19;;;;;;;1.13;0.40;;;15.50;1.00;;;;;;5094034;28;20462;-67
2022/08/31 01:22:50;;;;;;;0.20;0.20;;;15.40;1.00;;;;;;5093935;28;20051;-68
2022/08/31 01:25:16;;;;;;;0.63;0.35;;;15.40;1.00;;;;;;5092670;28;20127;-67
2022/08/31 01:27:42;;;;;;;0.50;0.40;;;15.40;1.00;;;;;;5093858;28;20036;-67
2022/08/31 01:30:11;;;;;;;0.68;0.40;;;15.30;1.00;;;;;;5092489;28;20044;-67
2022/08/31 01:32:39;;;;;;;0.30;0.30;;;15.30;1.00;;;;;;5094052;28;20044;-67
2022/08/31 01:35:06;;;;;;;0.70;0.30;;;15.20;1.00;;;;;;5094068;28;20044;-67
2022/08/31 01:37:32;;;;;;;0.68;0.40;;;15.10;1.00;;;;;;5093726;28;20036;-66
2022/08/31 01:39:58;;;;;;;0.28;0.28;;;15.10;1.00;;;;;;5093802;28;20087;-67
2022/08/31 01:42:24;;;;;;;0.30;0.30;;;15.10;1.00;;;;;;5093871;28;20028;-67
2022/08/31 01:44:50;;;;;;;0.70;0.30;;;15.00;1.00;;;;;;5093528;28;20551;-67
2022/08/31 01:47:16;;;;;;;0.28;0.28;;;14.90;1.00;;;;;;5093791;28;20368;-67
2022/08/31 01:49:41;;;;;;;0.30;0.30;;;14.90;1.00;;;;;;5093731;28;20044;-67
2022/08/31 01:52:07;;;;;;;0.52;0.35;;;14.80;1.00;;;;;;5093421;28;20036;-64
2022/08/31 01:54:32;;;;;;;0.30;0.20;;;14.80;1.00;;;;;;5093568;28;20097;-64
2022/08/31 01:57:00;;;;;;;0.32;0.30;;;14.70;1.00;;;;;;5093665;28;20075;-64
2022/08/31 01:59:25;;;;;;;0.30;0.30;;;14.70;1.00;;;;;;5092129;28;20510;-64
2022/08/31 02:01:53;;;;;;;1.00;0.38;;;14.60;1.00;;;;;;5093617;28;20072;-64
2022/08/31 02:04:22;;;;;;;0.45;0.30;;;14.50;1.00;;;;;;5092220;28;20433;-64
2022/08/31 02:06:51;;;;;;;0.30;0.30;;;14.70;1.00;;;;;;5093050;28;20036;-64
2022/08/31 02:09:19;;;;;;;0.30;0.30;;;14.40;1.00;;;;;;5093435;28;20399;-64
2022/08/31 02:11:45;;;;;;;0.90;0.43;;;14.40;1.00;;;;;;5091785;28;20096;-64
2022/08/31 02:14:11;;;;;;;0.28;0.28;;;14.30;1.00;;;;;;5092909;28;20087;-64
2022/08/31 02:16:38;;;;;;;0.30;0.30;;;14.30;1.00;;;;;;5093255;28;20036;-65
2022/08/31 02:19:04;;;;;;;0.30;0.30;;;14.20;1.00;;;;;;5093119;28;20040;-64
2022/08/31 02:21:30;;;;;;;0.35;0.28;;;14.20;1.00;;;;;;5092907;28;20079;-64
2022/08/31 02:23:56;;;;;;;0.63;0.30;;;14.10;1.00;;;;;;5093261;28;20168;-64
2022/08/31 02:26:22;;;;;;;1.00;0.55;;;14.10;1.00;;;;;;5092919;28;20037;-64
2022/08/31 02:28:48;;;;;;;2.33;0.43;;;14.10;1.00;;;;;;5092852;28;20047;-64
2022/08/31 02:31:14;;;;;;;0.28;0.22;;;14.00;1.00;;;;;;5093180;28;20048;-64
2022/08/31 02:33:40;;;;;;;0.20;0.20;;;14.00;1.00;;;;;;5092573;28;20479;-64
2022/08/31 02:36:05;;;;;;;0.20;0.20;;;13.90;1.00;;;;;;5093047;28;20040;-64
2022/08/31 02:38:33;;;;;;;0.43;0.40;;;13.90;1.00;;;;;;5092940;28;20036;-64
2022/08/31 02:40:59;;;;;;;0.57;0.38;;;13.90;1.00;;;;;;5093027;28;20443;-64
2022/08/31 02:43:25;;;;;;;0.30;0.30;;;13.80;1.00;;;;;;5092954;28;20066;-64
2022/08/31 02:45:51;;;;;;;0.43;0.40;;;13.80;1.00;;;;;;5091758;28;20036;-64
2022/08/31 02:48:17;;;;;;;0.30;0.20;;;13.80;1.00;;;;;;5092967;28;20043;-64
2022/08/31 02:50:46;;;;;;;0.47;0.40;;;13.70;1.00;;;;;;5092650;28;20047;-64
2022/08/31 02:53:14;;;;;;;0.30;0.30;;;13.70;1.00;;;;;;5092637;28;20042;-64
2022/08/31 02:55:41;;;;;;;1.20;0.30;;;13.70;1.00;;;;;;5092893;28;20036;-64
2022/08/31 02:58:08;;;;;;;0.30;0.22;;;13.60;1.00;;;;;;5092868;28;20443;-64
2022/08/31 03:00:35;;;;;;;0.50;0.30;;;13.60;1.00;;;;;;5092788;28;20050;-64
2022/08/31 03:03:01;;;;;;;0.30;0.30;;;13.60;1.00;;;;;;5092834;28;20034;-64
2022/08/31 03:05:27;;;;;;;0.40;0.40;;;13.50;1.00;;;;;;5092769;28;20122;-64
2022/08/31 03:07:53;;;;;;;1.05;0.52;;;13.50;1.00;;;;;;5092766;28;20471;-64
2022/08/31 03:10:21;;;;;;;0.30;0.30;;;13.50;1.00;;;;;;5092777;28;20040;-64
2022/08/31 03:12:47;;;;;;;0.47;0.35;;;13.50;1.00;;;;;;5091441;28;20470;-64
2022/08/31 03:15:14;;;;;;;1.10;0.30;;;13.40;1.00;;;;;;5092306;28;20048;-64
2022/08/31 03:17:40;;;;;;;0.30;0.30;;;13.40;1.00;;;;;;5092672;28;20123;-64
2022/08/31 03:20:07;;;;;;;0.20;0.20;;;13.30;1.00;;;;;;5092304;28;20047;-64
2022/08/31 03:22:33;;;;;;;0.40;0.30;;;13.30;1.00;;;;;;5092633;28;20048;-64
2022/08/31 03:24:59;;;;;;;0.20;0.20;;;13.30;1.00;;;;;;5092404;28;20078;-64
2022/08/31 03:27:28;;;;;;;0.30;0.30;;;13.90;1.00;;;;;;5092366;28;20075;-64
2022/08/31 03:29:53;;;;;;;0.22;0.22;;;13.30;1.00;;;;;;5091320;28;20048;-64
2022/08/31 03:32:19;;;;;;;0.40;0.32;;;13.20;1.00;;;;;;5091049;28;20047;-64
2022/08/31 03:34:45;;;;;;;0.50;0.40;;;13.20;1.00;;;;;;5074208;28;20047;-64
2022/08/31 03:37:11;;;;;;;1.75;0.32;;;13.10;1.00;;;;;;5092536;28;20399;-64
2022/08/31 03:39:37;;;;;;;0.52;0.45;;;13.10;1.00;;;;;;5091145;28;20036;-64
2022/08/31 03:42:05;;;;;;;0.40;0.30;;;13.10;1.00;;;;;;5092496;28;20032;-64
2022/08/31 03:44:32;;;;;;;0.35;0.35;;;13.10;1.00;;;;;;5092595;28;20059;-64
2022/08/31 03:46:58;;;;;;;3.47;0.60;;;13.20;1.00;;;;;;5094456;28;20044;-64
2022/08/31 03:49:25;;;;;;;1.02;0.40;;;13.00;1.00;;;;;;5096030;28;20146;-64
2022/08/31 03:51:51;;;;;;;0.65;0.40;;;13.00;1.00;;;;;;5095941;28;20123;-64
2022/08/31 03:54:17;;;;;;;0.50;0.40;;;13.20;1.00;;;;;;5095910;28;20042;-64
2022/08/31 03:56:43;;;;;;;0.30;0.30;;;12.90;1.00;;;;;;5095774;28;20044;-64
2022/08/31 03:59:09;;;;;;;0.20;0.20;;;13.00;1.00;;;;;;5095759;28;20040;-64
2022/08/31 04:01:35;;;;;;;0.32;0.32;;;13.00;1.00;;;;;;5095757;28;20112;-64
2022/08/31 04:04:02;;;;;;;0.32;0.32;;;13.00;1.00;;;;;;5095811;28;20541;-64
2022/08/31 04:06:28;;;;;;;0.30;0.30;;;12.90;1.00;;;;;;5095719;28;20089;-64
2022/08/31 04:08:54;;;;;;;1.40;0.38;;;12.90;5.60;;;;;;5128442;27;20368;-64
2022/08/31 04:11:21;;;;;;;0.80;0.50;;;12.80;50.70;;;;;;5095557;28;20062;-64
2022/08/31 04:13:47;;;;;;;0.50;0.40;;;12.80;15.30;;;;;;5095353;28;20415;-64
2022/08/31 04:16:15;;;;;;;0.30;0.30;;;12.90;55.80;;;;;;5095408;28;20035;-64
2022/08/31 04:18:43;;;;;;;1.13;0.55;;;12.80;43.60;;;;;;5095021;28;20036;-64
2022/08/31 04:21:14;;;;;;;0.90;0.52;;;12.90;54.70;;;;;;5095437;28;20085;-64
2022/08/31 04:23:40;;;;;;;;;;;12.70;41.10;;;;;;5094147;28;20044;-64
2022/08/31 04:26:30;;;;;;;1.52;0.40;;;12.70;86.60;;;;;;5095014;28;19920;-64
2022/08/31 04:28:56;;;;;;;1.55;0.50;;;12.70;99.90;;;;;;5095275;28;20040;-64
2022/08/31 04:31:24;;;;;;;0.20;0.20;;;12.70;86.70;;;;;;5095209;28;20036;-64
2022/08/31 04:33:50;;;;;;;0.30;0.30;;;12.70;76.20;;;;;;5095167;28;20032;-64
2022/08/31 04:36:19;;;;;;;0.20;0.20;;;12.90;93.80;;;;;;5093567;28;20058;-64
2022/08/31 04:38:48;;;;;;;3.92;0.50;;;12.70;87.60;;;;;;5094564;28;20048;-64
2022/08/31 04:41:16;;;;;;;0.47;0.40;;;13.10;89.60;;;;;;5095008;28;20475;-64
2022/08/31 04:43:47;;;;;;;0.50;0.40;;;12.60;99.90;;;;;;5094956;28;20036;-64
2022/08/31 04:46:14;;;;;;;4.30;0.43;;;12.60;99.90;;;;;;5094916;28;20051;-64
2022/08/31 04:48:40;;;;;;;1.35;0.60;;;12.60;99.90;;;;;;5094508;28;20032;-64
2022/08/31 04:51:13;;;;;;;0.50;0.30;;;12.60;99.90;;;;;;5094816;28;20043;-64
2022/08/31 04:53:39;;;;;;;0.73;0.50;;;12.60;99.90;;;;;;5094773;28;20036;-64
2022/08/31 04:56:14;;;;;;;0.60;0.43;;;12.60;99.90;;;;;;5094167;28;20038;-64
2022/08/31 04:58:42;;;;;;;0.60;0.55;;;12.60;99.90;;;;;;5094234;28;20043;-64
2022/08/31 05:01:14;;;;;;;0.40;0.40;;;12.60;99.90;;;;;;5094597;28;20081;-64
2022/08/31 05:03:40;;;;;;;1.52;0.70;;;12.50;99.90;;;;;;5094565;28;20472;-64
2022/08/31 05:06:14;;;;;;;0.70;0.45;;;12.60;99.90;;;;;;5094541;28;20047;-64
2022/08/31 05:08:40;;;;;;;1.02;0.60;;;12.50;99.90;;;;;;5094495;28;20036;-64
2022/08/31 05:11:15;;;;;;;0.47;0.32;;;12.50;99.90;;;;;;5075960;28;20415;-63
2022/08/31 05:13:41;;;;;;;0.40;0.40;;;12.50;99.90;;;;;;5094133;28;20430;-64
2022/08/31 05:16:09;;;;;;;0.57;0.52;;;12.50;99.90;;;;;;5093999;28;20044;-64
2022/08/31 05:18:40;;;;;;;0.50;0.50;;;12.50;99.90;;;;;;5092848;28;20055;-64
2022/08/31 05:21:14;;;;;;;;;;;12.50;99.90;;;;;;5094596;28;20071;-63
2022/08/31 05:23:39;;;;;;;1.17;1.08;;;12.60;99.90;;;;;;5094170;28;20272;-64
2022/08/31 05:26:06;;;;;;;0.32;0.32;;;12.60;99.90;;;;;;5094131;28;20046;-64
2022/08/31 05:28:34;;;;;;;0.95;0.50;;;12.60;99.90;;;;;;5092484;28;20044;-64
2022/08/31 05:31:00;;;;;;;0.60;0.45;;;12.60;99.90;;;;;;5093714;28;20079;-64
2022/08/31 05:33:28;;;;;;;5.25;0.45;;;12.60;99.90;;;;;;5093804;28;20085;-64
2022/08/31 05:35:54;;;;;;;0.30;0.30;;;12.70;99.90;;;;;;5094117;28;20097;-64
2022/08/31 05:38:20;;;;;;;2.08;0.65;;;12.60;99.90;;;;;;5094207;28;20035;-63
2022/08/31 05:40:53;;;;;;;0.60;0.40;;;12.70;99.90;;;;;;5094288;28;20097;-64
2022/08/31 05:43:20;;;;;;;0.45;0.40;;;12.70;1.00;;;;;;5092686;28;20049;-64
2022/08/31 05:45:46;;;;;;;0.73;0.52;;;12.70;1.00;;;;;;5094076;28;20482;-65
2022/08/31 05:48:11;;;;;;;0.50;0.40;;;12.70;1.00;;;;;;5094294;28;20039;-67
2022/08/31 05:50:37;;;;;;;0.50;0.50;;;12.70;1.00;;;;;;5093786;28;20047;-68
2022/08/31 05:53:03;;;;;;;1.38;0.60;;;12.80;1.00;;;;;;5092428;28;20048;-71
2022/08/31 05:55:30;;;;;;;0.82;0.40;;;12.90;1.00;;;;;;5093756;28;20040;-67
2022/08/31 05:57:56;;;;;;;0.45;0.40;;;13.40;7.60;;;;;;5092554;28;20403;-67
2022/08/31 06:00:24;;;;;;;0.75;0.65;;;13.20;1.00;;;;;;5093688;28;20054;-68
2022/08/31 06:02:50;;;;;;;1.00;0.50;;;13.00;10.20;;;;;;5093651;28;20115;-68
2022/08/31 06:05:16;;;;;;;0.95;0.60;;;13.00;99.90;;;;;;5093613;28;20040;-68
2022/08/31 06:07:42;;;;;;;0.32;0.30;;;13.10;8.60;;;;;;5092590;28;20123;-68
2022/08/31 06:10:08;;;;;;;1.33;0.35;;;13.20;1.00;;;;;;5093187;28;20082;-68
2022/08/31 06:12:37;;;;;;;0.45;0.45;;;13.20;99.90;;;;;;5093089;28;20110;-67
2022/08/31 06:15:04;;;;;;;1.08;0.93;;;13.30;1.00;;;;;;5093088;28;20419;-67
2022/08/31 06:17:31;;;;;;;0.43;0.40;;;13.50;1.00;;;;;;5093045;28;20061;-68
2022/08/31 06:19:57;;;;;;;0.35;0.35;;;13.60;1.00;;;;;;5091875;28;20496;-66
2022/08/31 06:22:26;;;;;;;0.85;0.63;;;13.70;1.00;;;;;;5091787;28;20178;-68
2022/08/31 06:24:52;;;;;;;1.10;0.70;;;13.90;1.00;;;;;;5092954;28;20032;-68
2022/08/31 06:27:18;;;;;;;0.60;0.60;;;14.00;99.90;;;;;;5093249;28;20043;-68
2022/08/31 06:29:44;;;;;;;0.82;0.47;;;14.20;99.90;;;;;;5093187;28;20123;-69
2022/08/31 06:32:12;;;;;;;0.30;0.30;;;14.30;99.90;;;;;;5093180;28;20036;-65
2022/08/31 06:34:39;;;;;;;1.08;0.60;;;14.50;99.90;;;;;;5091775;28;20055;-65
2022/08/31 06:37:06;;;;;;;0.45;0.45;;;14.70;99.90;;;;;;5093109;28;20072;-65
2022/08/31 06:39:32;;;;;;;2.33;1.10;;;14.80;99.90;;;;;;5092921;28;20119;-65
2022/08/31 06:41:58;;;;;;;0.82;0.70;;;15.00;99.90;;;;;;5093087;28;20043;-65
2022/08/31 06:44:25;;;;;;;0.50;0.50;;;15.20;99.90;;;;;;5093048;28;20040;-66
2022/08/31 06:46:51;;;;;;;0.75;0.52;;;15.30;96.60;;;;;;5092956;28;20094;-65
2022/08/31 06:49:18;;;;;;;0.40;0.40;;;15.30;68.90;;;;;;5092618;28;20079;-65
2022/08/31 06:51:44;;;;;;;0.55;0.50;;;15.50;41.10;;;;;;5092782;28;20455;-66
2022/08/31 06:54:12;;;;;;;0.52;0.40;;;15.70;22.90;;;;;;5092846;28;20510;-66
2022/08/31 06:56:38;;;;;;;0.80;0.57;;;15.90;22.50;;;;;;5092505;28;20044;-66
2022/08/31 06:59:05;;;;;;;1.05;0.60;;;15.90;1.00;;;;;;5092465;28;20044;-66
2022/08/31 07:01:33;;;;;;;0.45;0.45;;;16.10;1.00;;;;;;5091263;28;20048;-66
2022/08/31 07:04:01;;;;;;;0.50;0.50;;;16.10;1.00;;;;;;5092757;28;20499;-68
2022/08/31 07:06:30;;;;;;;0.40;0.40;;;16.20;1.00;;;;;;5092381;28;20051;-66
2022/08/31 07:08:59;;;;;;;0.75;0.52;;;16.30;99.90;;;;;;5074309;28;20087;-66
2022/08/31 07:11:30;;;;;;;0.80;0.50;;;16.40;99.90;;;;;;5092647;28;20047;-66
2022/08/31 07:13:56;;;;;;;1.20;0.40;;;16.70;99.90;;;;;;5091237;28;20507;-66
2022/08/31 07:16:24;;;;;;;0.68;0.50;;;16.80;99.90;;;;;;5092334;28;20051;-66
2022/08/31 07:18:52;;;;;;;0.82;0.50;;;16.80;99.90;;;;;;5091726;28;20119;-66
2022/08/31 07:21:24;;;;;;;0.77;0.50;;;16.70;99.90;;;;;;5096484;28;20048;-66
2022/08/31 07:23:50;;;;;;;1.00;0.45;;;16.80;99.90;;;;;;5096423;28;20376;-67
2022/08/31 07:26:26;;;;;;;0.65;0.50;;;16.90;99.90;;;;;;5096064;28;20032;-67
2022/08/31 07:28:55;;;;;;;1.17;0.45;;;17.20;99.90;;;;;;5096002;28;20036;-66
2022/08/31 07:31:36;;;;;;;0.47;0.45;;;17.30;1.00;;;;;;5096334;28;20525;-67
2022/08/31 07:34:06;;;;;;;1.02;0.63;;;17.40;99.90;;;;;;5096293;28;20080;-67
2022/08/31 07:36:33;;;;;;;0.52;0.50;;;;;;;;;;5096225;28;20044;-67
2022/08/31 07:44:26;;;;;;;0.40;0.40;;;17.70;1.00;;;;;;5094827;28;20048;-66
2022/08/31 07:46:53;;;;;;;0.50;0.40;;;17.90;1.00;;;;;;5094757;28;20047;-66
2022/08/31 07:49:20;;;;;;;0.75;0.63;;;18.00;1.00;;;;;;5094846;28;20044;-67
2022/08/31 07:51:54;;;;;;;0.38;0.30;;;18.00;1.00;;;;;;5095744;28;20083;-67
2022/08/31 07:54:26;;;;;;;1.05;0.30;;;18.10;1.00;;;;;;5095684;28;20054;-66
2022/08/31 07:57:02;;;;;;;1.52;0.45;;;18.20;1.00;;;;;;5095904;28;20032;-67
2022/08/31 07:59:29;;;;;;;0.40;0.40;;;18.30;1.00;;;;;;5095766;28;20119;-66
2022/08/31 08:01:54;;;;;;;0.77;0.50;;;18.40;1.00;;;;;;5095876;28;20075;-67
2022/08/31 08:04:24;;;;;;;0.50;0.50;;;18.40;1.00;;;;;;5094526;28;20066;-68
2022/08/31 08:06:54;;;;;;;0.45;0.30;;;18.40;1.00;;;;;;5095795;28;20043;-67
2022/08/31 08:09:24;;;;;;;0.85;0.52;;;18.60;1.00;;;;;;5095718;28;20048;-66
2022/08/31 08:11:56;;;;;;;0.50;0.30;;;18.60;1.00;;;;;;5095720;28;20479;-67
2022/08/31 08:14:26;;;;;;;1.15;0.60;;;18.60;1.00;;;;;;5095267;28;20503;-68
2022/08/31 08:16:53;;;;;;;1.17;0.57;;;18.70;1.00;;;;;;5095287;28;20051;-67
2022/08/31 08:19:19;;;;;;;0.40;0.32;;;18.70;1.00;;;;;;5094121;28;20044;-67
2022/08/31 08:21:45;;;;;;;0.63;0.50;;;18.80;1.00;;;;;;5094294;28;20467;-68
2022/08/31 08:24:13;;;;;;;0.77;0.50;;;18.90;1.00;;;;;;5094001;28;20043;-68
2022/08/31 08:26:46;;;;;;;0.50;0.40;;;18.90;1.00;;;;;;5095119;28;20039;-67
2022/08/31 08:29:12;;;;;;;0.30;0.30;;;18.80;1.00;;;;;;5095386;28;20424;-68
2022/08/31 08:31:38;;;;;;;0.30;0.30;;;18.80;1.00;;;;;;5093227;28;20036;-67
2022/08/31 08:34:05;;;;;;;1.90;0.45;;;18.90;1.00;;;;;;5094992;28;20475;-67
2022/08/31 08:36:34;;;;;;;0.80;0.45;;;19.00;1.00;;;;;;5094971;28;20041;-67
2022/08/31 08:39:02;;;;;;;0.52;0.50;;;19.10;1.00;;;;;;5094715;28;20076;-67
2022/08/31 08:41:32;;;;;;;0.73;0.45;;;19.30;1.00;;;;;;5094779;28;20070;-67
2022/08/31 08:44:00;;;;;;;1.60;0.32;;;19.30;1.00;;;;;;5094744;28;20071;-68
2022/08/31 08:46:26;;;;;;;0.88;0.60;;;19.40;1.00;;;;;;5094669;28;20043;-68
2022/08/31 08:48:54;;;;;;;2.20;0.45;;;19.30;1.00;;;;;;5093689;28;20119;-69
2022/08/31 08:51:23;;;;;;;1.30;0.52;;;19.30;1.00;;;;;;5094940;28;20036;-68
2022/08/31 08:53:53;;;;;;;0.75;0.52;;;19.50;1.00;;;;;;5093402;28;20047;-68
2022/08/31 08:56:19;;;;;;;1.60;0.68;;;19.40;1.00;;;;;;5093545;28;20047;-69
2022/08/31 08:58:45;;;;;;;0.40;0.30;;;19.60;1.00;;;;;;5094342;28;20040;-68
2022/08/31 09:01:26;;;;;;;0.40;0.40;;;19.50;1.00;;;;;;5127668;27;20044;-68
2022/08/31 09:03:51;;;;;;;0.22;0.22;;;19.40;1.00;;;;;;5094657;28;20032;-67
2022/08/31 09:06:29;;;;;;;0.40;0.40;;;19.50;1.00;;;;;;5094610;28;20491;-68
2022/08/31 09:09:16;;;;;;;0.82;0.40;;;19.50;1.00;;;;;;5094353;28;20043;-68
2022/08/31 09:11:45;;;;;;;0.30;0.30;;;19.50;1.00;;;;;;5094201;28;20040;-67
2022/08/31 09:14:39;;;;;;;1.23;0.40;;;19.40;1.00;;;;;;5094023;28;20099;-68
2022/08/31 09:17:36;;;;;;;0.28;0.28;;;19.30;1.00;;;;;;5094454;28;20044;-68
2022/08/31 09:20:04;;;;;;;0.93;0.47;;;19.40;1.00;;;;;;5094002;28;20040;-68
2022/08/31 09:22:48;;;;;;;0.28;0.28;;;19.50;1.00;;;;;;5094362;28;20067;-68
2022/08/31 09:25:28;;;;;;;0.50;0.38;;;19.60;1.00;;;;;;5094322;28;20059;-68
2022/08/31 09:27:57;;;;;;;0.77;0.40;;;19.70;1.00;;;;;;5092956;28;20491;-67
2022/08/31 09:30:43;;;;;;;0.22;0.22;;;19.90;1.00;;;;;;5094184;28;20390;-68
2022/08/31 09:33:33;;;;;;;1.10;0.38;;;20.00;1.00;;;;;;5092862;28;20059;-68
2022/08/31 09:36:16;;;;;;;0.30;0.30;;;20.00;1.00;;;;;;5093868;28;20040;-68
2022/08/31 09:38:45;;;;;;;0.40;0.30;;;20.00;1.00;;;;;;5093703;28;20036;-68
2022/08/31 09:41:31;;;;;;;0.57;0.40;;;20.10;1.00;;;;;;5093731;28;20044;-68
2022/08/31 09:44:29;;;;;;;1.30;0.65;;;20.10;1.00;;;;;;5093094;28;20123;-67
2022/08/31 09:46:59;;;;;;;0.30;0.30;;;20.30;1.00;;;;;;5093695;28;20040;-67
2022/08/31 09:49:33;;;;;;;0.38;0.30;;;20.40;1.00;;;;;;5092337;28;20097;-67
2022/08/31 09:55:12;;;;;;;0.22;0.22;;;20.50;1.00;;;;;;5093806;28;20043;-67
2022/08/31 09:55:26;;;;;;;0.20;0.20;;;20.50;1.00;;;;;;5093425;28;20057;-68
2022/08/31 09:58:06;;;;;;;0.45;0.30;;;20.60;1.00;;;;;;5093712;28;20044;-68
2022/08/31 10:00:41;;;;;;;1.02;0.47;;;20.70;1.00;;;;;;5093320;28;20050;-68
2022/08/31 10:03:20;;;;;;;0.73;0.30;;;20.70;1.00;;;;;;5092386;28;20495;-68
2022/08/31 10:05:48;;;;;;;0.47;0.30;;;20.70;1.00;;;;;;5093608;28;20127;-67
2022/08/31 10:08:32;;;;;;;0.32;0.32;;;20.90;1.00;;;;;;5092301;28;20491;-67
2022/08/31 10:11:05;;;;;;;0.43;0.40;;;20.90;1.00;;;;;;5093237;28;20039;-67
2022/08/31 10:13:38;;;;;;;0.73;0.40;;;21.00;1.00;;;;;;5091980;28;20044;-68
2022/08/31 10:16:25;;;;;;;0.57;0.38;;;21.10;1.00;;;;;;5091807;28;20082;-68
2022/08/31 10:19:02;;;;;;;0.70;0.28;;;21.30;1.00;;;;;;5093059;28;20376;-67
2022/08/31 10:21:58;;;;;;;1.48;0.38;;;21.40;1.00;;;;;;5093301;28;20089;-67
2022/08/31 10:24:43;;;;;;;0.40;0.40;;;21.40;1.00;;;;;;5085497;28;20044;-68
2022/08/31 10:27:19;;;;;;;0.50;0.50;;;21.40;1.00;;;;;;5093302;28;20042;-67
2022/08/31 10:30:19;;;;;;;6.13;1.35;;;21.40;1.00;;;;;;5093246;28;20044;-67
2022/08/31 10:32:51;;;;;;;;;;;21.30;1.00;;;;;;5093235;28;20055;-68
2022/08/31 10:35:27;;;;;;;1.05;0.60;;;21.30;1.00;;;;;;5091634;28;19916;-67
2022/08/31 10:37:57;;;;;;;15.88;2.13;;;21.30;1.00;;;;;;5074803;28;20040;-67
2022/08/31 10:40:46;;;;;;;12.48;1.67;;;21.40;1.00;;;;;;5093002;28;20052;-67
2022/08/31 10:43:17;;;;;;;0.95;0.40;;;21.50;1.00;;;;;;5092770;28;20036;-67
2022/08/31 10:45:48;;;;;;;1.30;0.50;;;21.60;1.00;;;;;;5093054;28;20061;-67
2022/08/31 10:48:17;;;;;;;0.50;0.50;;;21.60;1.00;;;;;;5093086;28;20169;-67
2022/08/31 10:51:18;;;;;;;1.10;0.40;;;21.60;1.00;;;;;;5093041;28;20032;-68
2022/08/31 10:54:28;;;;;;;1.30;0.45;;;21.70;1.00;;;;;;5093565;28;20123;-68
2022/08/31 10:57:08;;;;;;;1.80;0.55;;;21.70;1.00;;;;;;5093619;28;20071;-68
2022/08/31 10:59:52;;;;;;;0.83;0.50;;;21.70;1.00;;;;;;5096652;28;20044;-68
2022/08/31 11:02:32;;;;;;;0.28;0.28;;;21.60;1.00;;;;;;5097037;28;20266;-68
2022/08/31 11:05:17;;;;;;;0.60;0.43;;;21.70;1.00;;;;;;5096952;28;20559;-69
2022/08/31 11:08:21;;;;;;;0.47;0.35;;;21.70;1.00;;;;;;5096958;28;20502;-68
2022/08/31 11:10:53;;;;;;;0.30;0.30;;;21.70;1.00;;;;;;5078026;28;20051;-69
2022/08/31 11:13:47;;;;;;;0.30;0.30;;;21.80;1.00;;;;;;5096839;28;20040;-69
2022/08/31 11:16:25;;;;;;;3.40;0.70;;;21.50;1.00;;;;;;5096784;28;20445;-69
2022/08/31 11:19:04;;;;;;;0.60;0.50;;;21.50;1.00;;;;;;5096650;28;20043;-68
2022/08/31 11:21:44;;;;;;;0.63;0.40;;;21.50;1.00;;;;;;5096595;28;20105;-68
2022/08/31 11:24:17;;;;;;;;;;;21.60;1.00;;;;;;5095406;28;20097;-69
2022/08/31 11:27:04;;;;;;;0.98;0.60;;;21.70;1.00;;;;;;5096528;28;19919;-68
2022/08/31 11:29:55;;;;;;;1.30;0.60;;;21.70;1.00;;;;;;5094915;28;20055;-69
2022/08/31 11:32:38;;;;;;;0.25;0.25;;;21.80;1.00;;;;;;5095175;28;20043;-69
2022/08/31 11:35:08;;;;;;;0.20;0.20;;;21.70;1.00;;;;;;5096404;28;20044;-68
2022/08/31 11:37:57;;;;;;;0.20;0.20;;;21.70;1.00;;;;;;5096089;28;20040;-69
2022/08/31 11:40:40;;;;;;;0.30;0.30;;;21.80;1.00;;;;;;5094719;28;20100;-68
2022/08/31 11:43:35;;;;;;;2.17;0.68;;;21.70;1.00;;;;;;5094670;28;20044;-68
2022/08/31 11:46:23;;;;;;;0.40;0.32;;;21.70;1.00;;;;;;5081742;28;20058;-69
2022/08/31 11:48:52;;;;;;;0.20;0.20;;;21.70;1.00;;;;;;5094884;28;20103;-68
2022/08/31 11:51:36;;;;;;;0.40;0.32;;;21.80;1.00;;;;;;5096140;28;20039;-69
2022/08/31 11:54:10;;;;;;;0.35;0.35;;;21.90;1.00;;;;;;5094825;28;20040;-68
2022/08/31 11:56:46;;;;;;;0.55;0.20;;;21.90;1.00;;;;;;5095926;28;20040;-68
2022/08/31 11:59:32;;;;;;;2.30;0.52;;;22.00;1.00;;;;;;5095605;28;20053;-68
2022/08/31 12:02:20;;;;;;;1.27;0.50;;;22.00;1.00;;;;;;5095833;28;20036;-68
2022/08/31 12:04:46;;;;;;;0.55;0.40;;;22.00;1.00;;;;;;5080418;28;20105;-68
2022/08/31 12:07:46;;;;;;;0.38;0.38;;;22.10;1.00;;;;;;5094932;28;20044;-68
2022/08/31 12:10:15;;;;;;;0.63;0.50;;;22.10;1.00;;;;;;5095759;28;20399;-67
2022/08/31 12:13:18;;;;;;;3.58;0.40;;;22.10;1.00;;;;;;5094159;28;20044;-68
2022/08/31 12:15:52;;;;;;;0.88;0.30;;;22.00;1.00;;;;;;5066251;28;20056;-68
2022/08/31 12:18:30;;;;;;;0.22;0.20;;;22.00;1.00;;;;;;5095576;28;20184;-68
2022/08/31 12:24:17;;;;;;;1.25;0.40;;;22.10;1.00;;;;;;5095427;28;20127;-67
2022/08/31 12:27:03;;;;;;;0.30;0.30;;;22.20;1.00;;;;;;5095397;28;20111;-67
2022/08/31 12:29:33;;;;;;;0.30;0.30;;;22.40;1.00;;;;;;5093762;28;20071;-67
2022/08/31 12:32:08;;;;;;;0.73;0.43;;;22.40;14.00;;;;;;5094114;28;20164;-67
2022/08/31 12:34:39;;;;;;;0.82;0.17;;;22.40;20.70;;;;;;5095210;28;20054;-67
2022/08/31 12:37:31;;;;;;;0.10;0.10;;;22.50;25.90;;;;;;5093700;28;20071;-67
2022/08/31 12:40:20;;;;;;;0.30;0.30;;;22.50;1.00;;;;;;5095164;28;20495;-66
2022/08/31 12:43:04;;;;;;;0.38;0.22;;;22.50;1.00;;;;;;5093573;28;20059;-67
2022/08/31 12:45:35;;;;;;;0.25;0.25;;;22.50;1.00;;;;;;5094988;28;20040;-69
2022/08/31 12:48:19;;;;;;;0.85;0.40;;;22.60;37.70;;;;;;5093641;28;20062;-67
2022/08/31 12:50:55;;;;;;;0.52;0.30;;;22.60;7.40;;;;;;5094938;28;20047;-66
2022/08/31 12:53:50;;;;;;;0.52;0.32;;;22.50;50.20;;;;;;5093416;28;20072;-66
2022/08/31 12:56:30;;;;;;;0.45;0.40;;;22.60;6.20;;;;;;5094919;28;20122;-66
2022/08/31 12:59:02;;;;;;;;;;;22.60;2.60;;;;;;5093554;28;20051;-66
2022/08/31 13:01:28;;;;;;;0.10;0.10;;;22.60;41.70;;;;;;5094746;28;20416;-66
2022/08/31 13:03:59;;;;;;;0.17;0.17;;;22.50;39.60;;;;;;5094731;28;20089;-66
2022/08/31 13:06:34;;;;;;;0.20;0.20;;;22.60;60.20;;;;;;5093187;28;20044;-66
2022/08/31 13:09:00;;;;;;;0.20;0.20;;;22.60;1.00;;;;;;5094698;28;20105;-66
2022/08/31 13:11:34;;;;;;;1.30;0.68;;;22.50;48.00;;;;;;5094605;28;20040;-66
2022/08/31 13:14:37;;;;;;;0.47;0.30;;;22.50;2.50;;;;;;5094383;28;20181;-66
2022/08/31 13:17:16;;;;;;;0.60;0.38;;;22.70;2.20;;;;;;5094422;28;20040;-66
2022/08/31 13:19:52;;;;;;;0.47;0.38;;;22.70;2.40;;;;;;5094052;28;20050;-66
2022/08/31 13:22:29;;;;;;;2.58;0.47;;;22.50;46.90;;;;;;5092915;28;20082;-71
2022/08/31 13:25:08;;;;;;;0.30;0.30;;;22.60;47.20;;;;;;5094361;28;20241;-67
2022/08/31 13:27:36;;;;;;;0.43;0.40;;;22.60;47.60;;;;;;5092950;28;20040;-67
2022/08/31 13:30:17;;;;;;;0.68;0.20;;;22.60;45.40;;;;;;5094012;28;20051;-67
2022/08/31 13:32:48;;;;;;;0.17;0.10;;;22.70;30.70;;;;;;5094140;28;20046;-67